Fort Worth - NOAA's Hourly Summary for Monday, July 9, 2018
Hour Temp
(f)
RH
(%)
Solar Rad.
(MJ/m2)
Rainfall
(in)
Wind
(mph)
7/9/2018 12:00 AM 80 66 0 0 2.83
7/9/2018 1:00 AM 79 70 0 0 3.13
7/9/2018 2:00 AM 78 73 0 0 2.07
7/9/2018 3:00 AM 77 77 0 0 3.6
7/9/2018 4:00 AM 76 82 0 0 2.74
7/9/2018 5:00 AM 75 84 0 0 2.69
7/9/2018 6:00 AM 75 84 0.01 0 0.94
7/9/2018 7:00 AM 78 81 0.28 0 1.93
7/9/2018 8:00 AM 80 76 0.9 0 2.08
7/9/2018 9:00 AM 83 68 1.56 0 2.83
7/9/2018 10:00 AM 86 58 2.08 0 2.46
7/9/2018 11:00 AM 87 55 2.28 0 2.94
7/9/2018 12:00 PM 89 51 2.58 0 4.28
7/9/2018 1:00 PM 89 48 2.23 0 4.73
7/9/2018 2:00 PM 90 46 1.77 0 6.83
7/9/2018 3:00 PM 91 48 1.96 0 9.35
7/9/2018 4:00 PM 89 54 2.28 0 12.32
7/9/2018 5:00 PM 87 53 0.6 0 9.2
7/9/2018 6:00 PM 87 55 0.41 0 9.24
7/9/2018 7:00 PM 85 57 0.12 0 6.86
7/9/2018 8:00 PM 83 68 0.09 0 6.37
7/9/2018 9:00 PM 82 66 0 0 5.89
7/9/2018 10:00 PM 81 67 0 0 4.82
7/9/2018 11:00 PM 80 71 0 0 4.98
Data Summary 82 64 19.15 0.00 4.80